Map

Track Data

SID SEASON NUMBER BASIN SUBBASIN NAME ISO_TIME NATURE LAT LON WMO_WIND WMO_PRES WMO_AGENCY TRACK_TYPE DIST2LAND LANDFALL IFLAG USA_AGENCY USA_ATCF_ID USA_LAT USA_LON USA_RECORD USA_STATUS USA_WIND USA_PRES USA_SSHS USA_R34_NE USA_R34_SE USA_R34_SW USA_R34_NW USA_R50_NE USA_R50_SE USA_R50_SW USA_R50_NW USA_R64_NE USA_R64_SE USA_R64_SW USA_R64_NW USA_POCI USA_ROCI USA_RMW USA_EYE TOKYO_LAT TOKYO_LON TOKYO_GRADE TOKYO_WIND TOKYO_PRES TOKYO_R50_DIR TOKYO_R50_LONG TOKYO_R50_SHORT TOKYO_R30_DIR TOKYO_R30_LONG TOKYO_R30_SHORT TOKYO_LAND CMA_LAT CMA_LON CMA_CAT CMA_WIND CMA_PRES HKO_LAT HKO_LON HKO_CAT HKO_WIND HKO_PRES NEWDELHI_LAT NEWDELHI_LON NEWDELHI_GRADE NEWDELHI_WIND NEWDELHI_PRES NEWDELHI_CI NEWDELHI_DP NEWDELHI_POCI REUNION_LAT REUNION_LON REUNION_TYPE REUNION_WIND REUNION_PRES REUNION_TNUM REUNION_CI REUNION_RMW REUNION_R34_NE REUNION_R34_SE REUNION_R34_SW REUNION_R34_NW REUNION_R50_NE REUNION_R50_SE REUNION_R50_SW REUNION_R50_NW REUNION_R64_NE REUNION_R64_SE REUNION_R64_SW REUNION_R64_NW BOM_LAT BOM_LON BOM_TYPE BOM_WIND BOM_PRES BOM_TNUM BOM_CI BOM_RMW BOM_R34_NE BOM_R34_SE BOM_R34_SW BOM_R34_NW BOM_R50_NE BOM_R50_SE BOM_R50_SW BOM_R50_NW BOM_R64_NE BOM_R64_SE BOM_R64_SW BOM_R64_NW BOM_ROCI BOM_POCI BOM_EYE BOM_POS_METHOD BOM_PRES_METHOD NADI_LAT NADI_LON NADI_CAT NADI_WIND NADI_PRES WELLINGTON_LAT WELLINGTON_LON WELLINGTON_WIND WELLINGTON_PRES DS824_LAT DS824_LON DS824_STAGE DS824_WIND DS824_PRES TD9636_LAT TD9636_LON TD9636_STAGE TD9636_WIND TD9636_PRES TD9635_LAT TD9635_LON TD9635_WIND TD9635_PRES TD9635_ROCI NEUMANN_LAT NEUMANN_LON NEUMANN_CLASS NEUMANN_WIND NEUMANN_PRES MLC_LAT MLC_LON MLC_CLASS MLC_WIND MLC_PRES USA_GUST BOM_GUST BOM_GUST_PER REUNION_GUST REUNION_GUST_PER USA_SEAHGT USA_SEARAD_NE USA_SEARAD_SE USA_SEARAD_SW USA_SEARAD_NW STORM_SPEED STORM_DIR
1917092S10134 1917 21 SI WA NOT_NAMED 1917-04-01 12:00:00 NR -10.1000 134.300 main 198 120 __________O___ -1 -10.1000 134.300 7 19 244
1917092S10134 1917 21 SI WA NOT_NAMED 1917-04-01 15:00:00 NR -10.5100 133.458 main 120 49 __________P___ -1 -10.5100 133.458 7 18 244
1917092S10134 1917 21 SI WA NOT_NAMED 1917-04-01 18:00:00 NR -10.9151 132.623 main 46 0 __________P___ -1 -10.9151 132.623 7 18 244
1917092S10134 1917 21 SI WA NOT_NAMED 1917-04-01 21:00:00 NR -11.3127 131.800 main 10 0 __________P___ -1 -11.3127 131.800 7 18 244
1917092S10134 1917 21 SI WA NOT_NAMED 1917-04-02 00:00:00 NR -11.7000 131.000 main 0 0 __________O___ -1 -11.7000 131.000 7 17 244
1917092S10134 1917 21 SI WA NOT_NAMED 1917-04-02 03:00:00 NR -12.0763 130.222 main 33 33 __________P___ -1 -12.0763 130.222 7 17 244
1917092S10134 1917 21 SI WA NOT_NAMED 1917-04-02 06:00:00 NR -12.4472 129.437 main 101 94 __________P___ -1 -12.4472 129.437 7 17 245
1917092S10134 1917 21 SI WA NOT_NAMED 1917-04-02 09:00:00 NR -12.8196 128.609 main 151 99 __________P___ -1 -12.8196 128.609 7 19 246
1917092S10134 1917 21 SI WA NOT_NAMED 1917-04-02 12:00:00 NR -13.2000 127.700 main 93 31 __________O___ -1 -13.2000 127.700 7 21 248
1917092S10134 1917 21 SI WA NOT_NAMED 1917-04-02 15:00:00 NR -13.5938 126.637 main 39 22 __________P___ -1 -13.5938 126.637 7 23 250
1917092S10134 1917 21 SI WA NOT_NAMED 1917-04-02 18:00:00 NR -13.9939 125.495 main 35 35 __________P___ -1 -13.9939 125.495 7 24 250
1917092S10134 1917 21 SI WA NOT_NAMED 1917-04-02 21:00:00 NR -14.3968 124.330 main 99 99 __________P___ -1 -14.3968 124.330 7 24 250
1917092S10134 1917 21 SI WA NOT_NAMED 1917-04-03 00:00:00 NR -14.8000 123.200 main 156 156 __________O___ -1 -14.8000 123.200 7 22 250
1917092S10134 1917 21 SI WA NOT_NAMED 1917-04-03 03:00:00 NR -15.1697 122.168 main 163 163 __________P___ -1 -15.1697 122.168 7 21 249
1917092S10134 1917 21 SI WA NOT_NAMED 1917-04-03 06:00:00 NR -15.5452 121.180 main 209 208 __________P___ -1 -15.5452 121.180 7 20 247
1917092S10134 1917 21 SI WA NOT_NAMED 1917-04-03 09:00:00 NR -15.9481 120.227 main 261 255 __________P___ -1 -15.9481 120.227 7 20 245
1917092S10134 1917 21 SI WA NOT_NAMED 1917-04-03 12:00:00 NR -16.4000 119.300 main 324 324 __________O___ -1 -16.4000 119.300 7 22 241
1917092S10134 1917 21 SI WA NOT_NAMED 1917-04-03 15:00:00 NR -16.9907 118.261 main 356 321 __________P___ -1 -16.9907 118.261 7 23 238
1917092S10134 1917 21 SI WA NOT_NAMED 1917-04-03 18:00:00 NR -17.6194 117.258 main 324 269 __________P___ -1 -17.6194 117.258 7 22 236
1917092S10134 1917 21 SI WA NOT_NAMED 1917-04-03 21:00:00 NR -18.2131 116.376 main 270 232 __________P___ -1 -18.2131 116.376 7 18 234
1917092S10134 1917 21 SI WA NOT_NAMED 1917-04-04 00:00:00 NR -18.7000 115.700 main 236 224 __________O___ -1 -18.7000 115.700 7 13 232
1917092S10134 1917 21 SI WA NOT_NAMED 1917-04-04 03:00:00 NR -18.9871 115.327 main 231 216 __________P___ -1 -18.9871 115.327 7 7 227
1917092S10134 1917 21 SI WA NOT_NAMED 1917-04-04 06:00:00 NR -19.1668 115.164 main 216 212 __________P___ -1 -19.1668 115.164 7 4 213
1917092S10134 1917 21 SI WA NOT_NAMED 1917-04-04 09:00:00 NR -19.2882 115.119 main 212 203 __________P___ -1 -19.2882 115.119 7 2 194
1917092S10134 1917 21 SI WA NOT_NAMED 1917-04-04 12:00:00 NR -19.4000 115.100 main 203 194 __________O___ -1 -19.4000 115.100 7 2 206
1917092S10134 1917 21 SI WA NOT_NAMED 1917-04-04 15:00:00 NR -19.4893 115.015 main 200 191 __________P___ -1 -19.4893 115.015 7 3 221
1917092S10134 1917 21 SI WA NOT_NAMED 1917-04-04 18:00:00 NR -19.5919 114.930 main 197 185 __________P___ -1 -19.5919 114.930 7 3 215
1917092S10134 1917 21 SI WA NOT_NAMED 1917-04-04 21:00:00 NR -19.7735 114.805 main 185 175 __________P___ -1 -19.7735 114.805 7 6 211
1917092S10134 1917 21 SI WA NOT_NAMED 1917-04-05 00:00:00 NR -20.1000 114.600 main 175 140 __________O___ -1 -20.1000 114.600 7 10 214
1917092S10134 1917 21 SI WA NOT_NAMED 1917-04-05 03:00:00 NR -20.6017 114.219 main 140 80 __________P___ -1 -20.6017 114.219 7 14 214
1917092S10134 1917 21 SI WA NOT_NAMED 1917-04-05 06:00:00 NR -21.2546 113.761 main 70 53 __________P___ -1 -21.2546 113.761 7 17 211
1917092S10134 1917 21 SI WA NOT_NAMED 1917-04-05 09:00:00 NR -22.0300 113.297 main 61 52 __________P___ -1 -22.0300 113.297 7 18 206
1917092S10134 1917 21 SI WA NOT_NAMED 1917-04-05 12:00:00 NR -22.9000 112.900 main 79 79 __________O___ -1 -22.9000 112.900 7 20 198
1917092S10134 1917 21 SI WA NOT_NAMED 1917-04-05 15:00:00 NR -23.8982 112.654 main 81 80 __________P___ -1 -23.8982 112.654 7 21 190
1917092S10134 1917 21 SI WA NOT_NAMED 1917-04-05 18:00:00 NR -24.9666 112.486 main 111 92 __________P___ -1 -24.9666 112.486 7 21 187
1917092S10134 1917 21 SI WA NOT_NAMED 1917-04-05 21:00:00 NR -26.0018 112.376 main 90 89 __________P___ -1 -26.0018 112.376 7 20 185
1917092S10134 1917 21 SI WA NOT_NAMED 1917-04-06 00:00:00 NR -26.9000 112.300 main 119 119 __________O___ -1 -26.9000 112.300 7 15 186
1917092S10134 1917 21 SI WA NOT_NAMED 1917-04-06 03:00:00 NR -27.5174 112.208 main 164 164 __________P___ -1 -27.5174 112.208 7 11 187
1917092S10134 1917 21 SI WA NOT_NAMED 1917-04-06 06:00:00 NR -27.9919 112.146 main 197 197 __________P___ -1 -27.9919 112.146 7 9 186
1917092S10134 1917 21 SI WA NOT_NAMED 1917-04-06 09:00:00 NR -28.3956 112.112 main 207 207 __________P___ -1 -28.3956 112.112 7 8 183
1917092S10134 1917 21 SI WA NOT_NAMED 1917-04-06 12:00:00 NR -28.8000 112.100 main 219 219 __________O___ -1 -28.8000 112.100 7 9 0
1917092S10134 1917 21 SI WA NOT_NAMED 1917-04-06 15:00:00 NR -29.2618 112.108 main 244 244 __________P___ -1 -29.2618 112.108 7 10 179
1917092S10134 1917 21 SI WA NOT_NAMED 1917-04-06 18:00:00 NR -29.7778 112.130 main 266 266 __________P___ -1 -29.7778 112.130 7 11 178
1917092S10134 1917 21 SI WA NOT_NAMED 1917-04-06 21:00:00 NR -30.3300 112.162 main 270 270 __________P___ -1 -30.3300 112.162 7 11 177
1917092S10134 1917 21 SI WA NOT_NAMED 1917-04-07 00:00:00 NR -30.9000 112.200 main 280 __________O___ -1 -30.9000 112.200 7 11 175

About IBTrACS Database

This database is a web-friendly format of International Best Track Archive for Climate Stewardship (IBTrACS), a global best track data archive curated by NOAA dating back to 1842.

Updated: 2021-11-26